Lonaconing, Maryland
Current Conditions -  °F | °C
As of 1:53 AM on Friday 28 Nov 2014 (Local Time) from KCBE Reporting Station
Broken Clouds Broken Clouds  
Wind Chill: 26°   Ceiling: 3300
Heat Index: 32°   Visibility: 7mi
Dew Point: 23°   Wind: 7mph
Humidity: 69%   Direction: 260°W
Pressure: 30.25"   Gusts: NA
Location:  39.57°N, 78.98°W
Report Text: KCBE 280653Z AUTO 26006KT 7SM SCT010 SCT019 BKN033 00/M05 A3025 RMK AO1
Loading
Personal Weather Stations






























Interactive Weather Map New forecast layout! Learn more

10-Day Weather Forecast

Advertisements
Track Severe Weather on mobile